createdAt,value
2022-08-04T00:00:22.187Z,5.17
2022-08-04T00:02:33.470Z,4.17
2022-08-04T00:05:01.295Z,4.37
2022-08-04T00:07:44.349Z,4.30
2022-08-04T00:10:01.572Z,4.77
2022-08-04T00:12:08.480Z,5.10
2022-08-04T00:14:16.476Z,4.40
2022-08-04T00:16:20.829Z,4.30
2022-08-04T00:18:56.418Z,3.70
2022-08-04T00:21:05.325Z,4.00
2022-08-04T00:23:09.288Z,4.70
2022-08-04T00:25:12.359Z,5.03
2022-08-04T00:27:15.797Z,4.77
2022-08-04T00:29:18.585Z,4.47
2022-08-04T00:31:54.332Z,5.00
2022-08-04T00:33:46.825Z,7.10
2022-08-04T00:35:50.105Z,5.77
2022-08-04T00:37:53.555Z,7.00
2022-08-04T00:39:57.456Z,5.83
2022-08-04T00:42:37.435Z,6.32
2022-08-04T00:46:15.640Z,7.00
2022-08-04T00:48:37.787Z,7.10
2022-08-04T00:51:08.525Z,7.30
2022-08-04T00:53:30.061Z,6.28
2022-08-04T00:56:15.541Z,5.70
2022-08-04T00:59:08.063Z,5.32
2022-08-04T01:01:52.985Z,5.40
2022-08-04T01:04:19.480Z,5.20
2022-08-04T01:07:10.539Z,5.00
2022-08-04T01:09:54.082Z,5.82
2022-08-04T01:12:23.190Z,6.43
2022-08-04T01:14:43.595Z,6.20
2022-08-04T01:16:53.656Z,5.80
2022-08-04T01:19:00.641Z,9.10
2022-08-04T01:21:30.205Z,8.13
2022-08-04T01:24:16.321Z,7.50
2022-08-04T01:26:44.144Z,6.70
2022-08-04T01:29:09.548Z,6.60
2022-08-04T01:31:24.065Z,6.30
2022-08-04T01:33:30.370Z,5.57
2022-08-04T01:35:55.690Z,5.40
2022-08-04T01:38:20.076Z,5.17
2022-08-04T01:40:27.881Z,5.63
2022-08-04T01:42:34.131Z,5.40
2022-08-04T01:44:39.818Z,4.93
2022-08-04T01:46:42.644Z,5.57
2022-08-04T01:48:48.003Z,4.97
2022-08-04T01:50:53.937Z,4.40
2022-08-04T01:52:56.809Z,5.70
2022-08-04T01:55:01.647Z,5.03
2022-08-04T01:57:37.496Z,4.80
2022-08-04T01:59:31.064Z,5.80
2022-08-04T02:01:36.761Z,6.00
2022-08-04T02:04:20.674Z,6.50
2022-08-04T02:06:28.326Z,5.90
2022-08-04T02:09:20.696Z,5.33
2022-08-04T02:11:23.690Z,5.27
2022-08-04T02:13:38.289Z,6.20
2022-08-04T02:16:09.107Z,6.73
2022-08-04T02:18:27.277Z,6.10
2022-08-04T02:20:41.218Z,6.00
2022-08-04T02:23:06.838Z,6.30
2022-08-04T02:25:11.964Z,6.40
2022-08-04T02:27:15.440Z,5.80
2022-08-04T02:29:39.445Z,5.93
2022-08-04T02:32:07.849Z,6.07
2022-08-04T02:34:25.973Z,5.60
2022-08-04T02:36:39.100Z,5.80
2022-08-04T02:39:01.340Z,5.67
2022-08-04T02:41:06.099Z,5.50
2022-08-04T02:43:10.738Z,5.53
2022-08-04T02:45:14.593Z,5.70
2022-08-04T02:47:24.410Z,6.37
2022-08-04T02:49:47.898Z,7.75
2022-08-04T02:51:57.521Z,8.30
2022-08-04T02:54:04.035Z,7.63
2022-08-04T02:56:09.289Z,7.50
2022-08-04T02:58:15.419Z,8.17
2022-08-04T03:00:19.973Z,7.33
2022-08-04T03:02:40.943Z,7.53
2022-08-04T03:04:51.486Z,8.30
2022-08-04T03:07:07.995Z,7.20
2022-08-04T03:09:24.811Z,9.60
2022-08-04T03:11:45.649Z,10.10
2022-08-04T03:14:33.479Z,8.30
2022-08-04T03:17:07.287Z,7.05
2022-08-04T03:19:46.476Z,6.70
2022-08-04T03:22:22.833Z,7.50
2022-08-04T03:25:15.337Z,6.83
2022-08-04T03:28:19.087Z,7.43
2022-08-04T03:31:08.234Z,6.70
2022-08-04T03:33:57.064Z,5.53
2022-08-04T03:36:35.356Z,6.90
2022-08-04T03:39:23.228Z,8.13
2022-08-04T03:41:54.927Z,5.43
2022-08-04T03:44:27.522Z,5.90
2022-08-04T03:47:29.247Z,6.03
2022-08-04T03:50:07.564Z,6.20
2022-08-04T03:53:09.030Z,6.87
2022-08-04T03:55:58.408Z,6.60
2022-08-04T03:58:40.629Z,7.37
2022-08-04T04:02:01.336Z,8.57
2022-08-04T04:04:50.745Z,8.40
2022-08-04T04:07:36.063Z,7.88
2022-08-04T04:10:12.394Z,7.03
2022-08-04T04:12:30.745Z,6.87
2022-08-04T04:15:06.629Z,6.90
2022-08-04T04:17:17.816Z,6.63
2022-08-04T04:19:58.466Z,5.72
2022-08-04T04:22:23.304Z,5.27
2022-08-04T04:24:38.779Z,5.67
2022-08-04T04:27:10.179Z,6.00
2022-08-04T04:29:57.985Z,5.47
2022-08-04T04:32:36.244Z,6.07
2022-08-04T04:35:11.521Z,4.73
2022-08-04T04:37:48.935Z,5.13
2022-08-04T04:39:57.755Z,5.10
2022-08-04T04:42:21.347Z,7.07
2022-08-04T04:44:46.883Z,6.30
2022-08-04T04:47:03.744Z,5.97
2022-08-04T04:49:35.240Z,8.40
2022-08-04T04:52:20.622Z,7.90
2022-08-04T04:54:44.186Z,9.30
2022-08-04T04:57:23.147Z,9.00
2022-08-04T05:00:12.334Z,8.30
2022-08-04T05:02:29.478Z,7.90
2022-08-04T05:04:53.328Z,7.57
2022-08-04T05:07:50.487Z,7.13
2022-08-04T05:10:10.613Z,7.70
2022-08-04T05:14:33.264Z,6.53
2022-08-04T05:15:12.611Z,7.77
2022-08-04T05:17:30.791Z,6.27
2022-08-04T05:19:54.343Z,5.97
2022-08-04T05:22:00.603Z,5.90
2022-08-04T05:24:09.372Z,5.97
2022-08-04T05:26:18.356Z,6.37
2022-08-04T05:28:28.282Z,5.77
2022-08-04T05:30:37.071Z,5.87
2022-08-04T05:33:00.199Z,6.90
2022-08-04T05:35:09.659Z,5.60
2022-08-04T05:37:17.651Z,5.27
2022-08-04T05:39:34.168Z,5.43
2022-08-04T05:41:45.555Z,4.57
2022-08-04T05:43:50.715Z,5.17
2022-08-04T05:45:54.187Z,5.60
2022-08-04T05:47:57.067Z,5.43
2022-08-04T05:50:03.241Z,4.47
2022-08-04T05:52:09.713Z,5.50
2022-08-04T05:54:13.759Z,6.10
2022-08-04T05:56:18.072Z,5.77
2022-08-04T05:58:21.639Z,6.73
2022-08-04T06:00:40.724Z,6.07
2022-08-04T06:02:47.283Z,6.00
2022-08-04T06:04:51.590Z,6.20
2022-08-04T06:06:55.063Z,6.50
2022-08-04T06:08:58.176Z,5.23
2022-08-04T06:11:06.349Z,5.33
2022-08-04T06:13:49.202Z,5.40
2022-08-04T06:15:40.490Z,5.90
2022-08-04T06:18:35.063Z,10.60
2022-08-04T06:20:34.491Z,7.80
2022-08-04T06:22:42.332Z,6.80
2022-08-04T06:24:48.215Z,5.83
2022-08-04T06:26:52.271Z,6.50
2022-08-04T06:28:55.616Z,6.10
2022-08-04T06:32:26.968Z,6.00
2022-08-04T06:33:54.119Z,6.03
2022-08-04T06:35:59.505Z,5.90
2022-08-04T06:38:03.400Z,5.23
2022-08-04T06:40:31.122Z,5.90
2022-08-04T06:42:34.178Z,9.03
2022-08-04T06:44:41.395Z,5.93
2022-08-04T06:46:44.224Z,6.20
2022-08-04T06:48:47.742Z,6.60
2022-08-04T06:51:24.793Z,5.60
2022-08-04T06:53:15.157Z,6.10
2022-08-04T06:55:19.424Z,5.93
2022-08-04T06:57:31.245Z,5.40
2022-08-04T06:59:36.507Z,5.87
2022-08-04T07:19:09.769Z,6.17
2022-08-04T07:22:18.175Z,5.50
2022-08-04T07:27:51.071Z,7.30
2022-08-04T07:29:54.279Z,6.13
2022-08-04T07:31:58.775Z,5.97
2022-08-04T07:34:11.615Z,5.40
2022-08-04T07:36:24.197Z,5.78
2022-08-04T07:38:33.463Z,5.35
2022-08-04T07:40:41.031Z,7.47
2022-08-04T07:42:44.821Z,6.30
2022-08-04T07:44:48.171Z,6.10
2022-08-04T07:46:51.910Z,5.57
2022-08-04T07:48:55.214Z,6.53
2022-08-04T07:50:58.622Z,6.03
2022-08-04T07:53:54.318Z,4.83
2022-08-04T07:55:27.479Z,5.20
2022-08-04T07:57:40.280Z,5.23
2022-08-04T07:59:48.291Z,5.70
2022-08-04T08:01:54.965Z,6.13
2022-08-04T08:03:59.153Z,4.50
2022-08-04T08:06:31.691Z,6.30
2022-08-04T08:08:31.482Z,4.87
2022-08-04T08:10:34.069Z,6.00
2022-08-04T08:12:51.397Z,6.73
2022-08-04T08:15:22.145Z,5.40
2022-08-04T08:17:58.200Z,5.53
2022-08-04T08:20:33.338Z,4.63
2022-08-04T08:22:38.789Z,6.60
2022-08-04T08:24:42.568Z,5.27
2022-08-04T08:26:45.508Z,4.80
2022-08-04T08:28:48.552Z,3.90
2022-08-04T08:30:52.666Z,3.90
2022-08-04T08:32:55.580Z,4.13
2022-08-04T08:34:59.545Z,4.60
2022-08-04T08:37:35.098Z,4.00
2022-08-04T08:40:10.893Z,3.90
2022-08-04T08:42:53.920Z,3.27
2022-08-04T08:45:37.810Z,3.70
2022-08-04T08:48:38.058Z,3.70
2022-08-04T08:51:28.715Z,3.83
2022-08-04T08:53:40.404Z,3.33
2022-08-04T08:56:39.738Z,3.70
2022-08-04T08:59:07.342Z,3.67
2022-08-04T09:01:51.668Z,4.50
2022-08-04T09:04:04.981Z,4.10
2022-08-04T09:06:27.483Z,3.73
2022-08-04T09:09:14.170Z,3.93
2022-08-04T09:11:22.680Z,3.30
2022-08-04T09:13:35.557Z,3.17
2022-08-04T09:16:00.185Z,2.67
2022-08-04T09:18:29.582Z,2.40
2022-08-04T09:20:49.403Z,3.60
2022-08-04T09:23:26.868Z,3.23
2022-08-04T09:25:58.525Z,3.30
2022-08-04T09:28:37.228Z,3.37
2022-08-04T09:30:58.138Z,3.27
2022-08-04T09:33:45.366Z,3.90
2022-08-04T09:36:26.001Z,3.50
2022-08-04T09:38:52.429Z,3.80
2022-08-04T09:41:48.623Z,3.57
2022-08-04T09:44:50.090Z,3.10
2022-08-04T09:46:47.261Z,3.67
2022-08-04T09:49:21.815Z,3.60
2022-08-04T09:51:58.169Z,3.80
2022-08-04T09:54:29.337Z,3.80
2022-08-04T09:56:55.005Z,4.00
2022-08-04T09:59:24.405Z,2.90
2022-08-04T10:01:35.223Z,4.20
2022-08-04T10:03:45.530Z,3.13
2022-08-04T10:06:08.787Z,3.60
2022-08-04T10:08:44.622Z,3.10
2022-08-04T10:11:08.496Z,2.95
2022-08-04T10:14:01.052Z,3.20
2022-08-04T10:16:39.391Z,3.70
2022-08-04T10:18:53.209Z,3.57
2022-08-04T10:21:08.896Z,4.07
2022-08-04T10:23:56.186Z,3.93
2022-08-04T10:26:38.745Z,3.60
2022-08-04T10:28:52.462Z,3.30
2022-08-04T10:31:09.998Z,3.47
2022-08-04T10:33:26.644Z,3.40
2022-08-04T10:35:37.984Z,3.70
2022-08-04T10:38:06.575Z,3.60
2022-08-04T10:40:36.460Z,3.50
2022-08-04T10:42:50.507Z,4.10
2022-08-04T10:45:20.658Z,3.60
2022-08-04T10:47:44.324Z,3.30
2022-08-04T10:50:00.703Z,3.40
2022-08-04T10:52:31.430Z,2.80
2022-08-04T10:54:50.656Z,3.07
2022-08-04T10:57:03.867Z,3.33
2022-08-04T11:00:04.547Z,3.30
2022-08-04T11:02:40.227Z,3.17
2022-08-04T11:04:49.071Z,3.50
2022-08-04T11:06:53.185Z,3.17
2022-08-04T11:08:57.220Z,4.20
2022-08-04T11:11:07.972Z,3.00
2022-08-04T11:13:30.090Z,3.43
2022-08-04T11:15:41.044Z,2.77
2022-08-04T11:17:57.814Z,2.90
2022-08-04T11:20:34.469Z,2.97
2022-08-04T11:22:55.707Z,2.95
2022-08-04T11:25:25.048Z,3.00
2022-08-04T11:27:43.549Z,2.80
2022-08-04T11:30:09.448Z,3.07
2022-08-04T11:33:05.294Z,3.20
2022-08-04T11:35:14.184Z,3.03
2022-08-04T11:37:24.844Z,2.93
2022-08-04T11:39:43.921Z,2.67
2022-08-04T11:42:10.808Z,2.97
2022-08-04T11:44:24.375Z,2.90
2022-08-04T11:46:39.954Z,2.83
2022-08-04T11:49:29.974Z,2.78
2022-08-04T11:51:35.169Z,2.70
2022-08-04T11:53:40.137Z,2.70
2022-08-04T11:56:07.526Z,3.27
2022-08-04T11:58:07.564Z,3.00
2022-08-04T12:00:15.213Z,2.57
2022-08-04T12:02:42.334Z,3.10
2022-08-04T12:05:09.424Z,3.60
2022-08-04T12:08:12.580Z,2.97
2022-08-04T12:11:02.251Z,2.67
2022-08-04T12:13:28.724Z,2.90
2022-08-04T12:15:48.112Z,2.80
2022-08-04T12:17:59.857Z,2.40
2022-08-04T12:20:31.639Z,2.03
2022-08-04T12:22:40.668Z,2.07
2022-08-04T12:25:01.757Z,3.00
2022-08-04T12:27:31.006Z,2.80
2022-08-04T12:29:36.486Z,2.60
2022-08-04T12:31:49.761Z,2.33
2022-08-04T12:34:06.637Z,2.43
2022-08-04T12:36:40.815Z,2.73
2022-08-04T12:39:01.941Z,2.33
2022-08-04T12:41:07.442Z,2.50
2022-08-04T12:43:18.348Z,2.20
2022-08-04T12:45:22.636Z,2.23
2022-08-04T12:47:36.342Z,2.17
2022-08-04T12:50:00.958Z,2.10
2022-08-04T12:52:17.964Z,2.47
2022-08-04T12:54:32.229Z,2.37
2022-08-04T12:56:37.974Z,2.80
2022-08-04T12:58:49.515Z,2.47
2022-08-04T13:01:03.499Z,2.37
2022-08-04T13:04:06.493Z,2.83
2022-08-04T13:06:35.629Z,2.10
2022-08-04T13:08:41.844Z,2.20
2022-08-04T13:10:57.837Z,2.00
2022-08-04T13:13:06.322Z,1.90
2022-08-04T13:15:18.930Z,2.50
2022-08-04T13:17:23.037Z,2.03
2022-08-04T13:19:56.347Z,2.40
2022-08-04T13:22:05.591Z,3.23
2022-08-04T13:24:22.759Z,2.50
2022-08-04T13:26:42.585Z,2.60
2022-08-04T13:29:01.327Z,2.50
2022-08-04T13:31:24.122Z,2.37
2022-08-04T13:34:05.408Z,2.13
2022-08-04T13:36:12.394Z,2.33
2022-08-04T13:38:19.541Z,2.40
2022-08-04T13:40:30.802Z,2.67
2022-08-04T13:42:36.918Z,2.40
2022-08-04T13:44:44.431Z,2.63
2022-08-04T13:46:53.447Z,2.50
2022-08-04T13:51:25.533Z,2.77
2022-08-04T13:53:58.781Z,2.50
2022-08-04T13:56:08.349Z,2.73
2022-08-04T13:58:23.764Z,2.60
2022-08-04T14:00:46.337Z,2.57
2022-08-04T14:03:23.834Z,1.97
2022-08-04T14:05:36.908Z,2.20
2022-08-04T14:08:17.366Z,2.57
2022-08-04T14:10:22.748Z,2.27
2022-08-04T14:12:46.374Z,2.20
2022-08-04T14:14:53.071Z,2.70
2022-08-04T14:17:17.141Z,2.33
2022-08-04T14:19:29.223Z,2.30
2022-08-04T14:21:39.885Z,2.33
2022-08-04T14:23:57.820Z,2.10
2022-08-04T14:26:00.509Z,2.37
2022-08-04T14:28:06.307Z,1.90
2022-08-04T14:30:40.977Z,1.87
2022-08-04T14:34:02.945Z,1.93
2022-08-04T14:35:58.838Z,2.00
2022-08-04T14:38:11.728Z,1.90
2022-08-04T14:40:31.453Z,2.50
2022-08-04T14:42:59.859Z,2.70
2022-08-04T14:45:03.880Z,2.10
2022-08-04T14:47:13.085Z,2.07
2022-08-04T14:49:17.276Z,2.27
2022-08-04T14:51:26.282Z,2.43
2022-08-04T14:53:55.268Z,2.10
2022-08-04T14:56:00.180Z,2.20
2022-08-04T14:58:33.866Z,2.30
2022-08-04T15:00:37.446Z,2.40
2022-08-04T15:02:42.793Z,2.00
2022-08-04T15:04:46.778Z,2.30
2022-08-04T15:07:16.885Z,2.17
2022-08-04T15:09:24.221Z,1.73
2022-08-04T15:11:47.321Z,2.30
2022-08-04T15:13:49.990Z,2.00
2022-08-04T15:16:54.259Z,1.60
2022-08-04T15:19:00.800Z,1.70
2022-08-04T15:21:08.314Z,1.50
2022-08-04T15:23:11.170Z,1.97
2022-08-04T15:25:15.656Z,1.80
2022-08-04T15:27:26.686Z,2.03
2022-08-04T15:30:00.615Z,1.93
2022-08-04T15:32:09.211Z,1.80
2022-08-04T15:34:17.749Z,2.13
2022-08-04T15:36:56.126Z,1.60
2022-08-04T15:40:16.767Z,1.80
2022-08-04T15:43:09.163Z,1.50
2022-08-04T15:46:41.203Z,1.50
2022-08-04T15:48:04.998Z,1.77
2022-08-04T15:50:13.763Z,1.90
2022-08-04T15:52:59.650Z,1.40
2022-08-04T15:55:45.981Z,1.70
2022-08-04T15:58:05.442Z,1.60
2022-08-04T16:00:14.835Z,2.07
2022-08-04T16:02:36.404Z,1.93
2022-08-04T16:04:39.329Z,1.90
2022-08-04T16:06:44.626Z,1.90
2022-08-04T16:09:00.708Z,1.83
2022-08-04T16:11:05.733Z,1.77
2022-08-04T16:13:24.028Z,1.90
2022-08-04T16:16:03.899Z,1.97
2022-08-04T16:18:25.340Z,2.03
2022-08-04T16:20:36.897Z,1.90
2022-08-04T16:23:53.533Z,1.80
2022-08-04T16:25:56.582Z,2.10
2022-08-04T16:28:02.830Z,2.00
2022-08-04T16:30:15.644Z,1.77
2022-08-04T16:32:42.035Z,2.13
2022-08-04T16:35:03.732Z,2.30
2022-08-04T16:37:09.277Z,3.97
2022-08-04T16:39:19.317Z,2.57
2022-08-04T16:41:42.490Z,2.20
2022-08-04T16:43:45.048Z,2.30
2022-08-04T16:46:04.052Z,2.00
2022-08-04T16:48:11.415Z,1.70
2022-08-04T16:50:24.460Z,1.70
2022-08-04T16:52:28.334Z,1.37
2022-08-04T16:54:35.126Z,1.60
2022-08-04T16:56:37.924Z,1.47
2022-08-04T16:58:53.060Z,1.47
2022-08-04T17:00:57.578Z,1.20
2022-08-04T17:03:09.576Z,1.80
2022-08-04T17:05:39.824Z,1.23
2022-08-04T17:08:13.138Z,1.17
2022-08-04T17:10:17.301Z,1.50
2022-08-04T17:12:20.139Z,1.30
2022-08-04T17:14:31.265Z,1.33
2022-08-04T17:16:40.246Z,1.33
2022-08-04T17:18:51.192Z,1.20
2022-08-04T17:21:01.275Z,1.30
2022-08-04T17:24:14.616Z,1.20
2022-08-04T17:25:55.503Z,1.20
2022-08-04T17:28:09.616Z,1.10
2022-08-04T17:30:30.136Z,1.10
2022-08-04T17:32:35.597Z,1.10
2022-08-04T17:34:50.395Z,1.10
2022-08-04T17:36:52.981Z,1.30
2022-08-04T17:39:04.386Z,1.00
2022-08-04T17:41:19.332Z,0.90
2022-08-04T17:44:04.018Z,0.90
2022-08-04T17:46:45.433Z,0.97
2022-08-04T17:49:07.082Z,1.20
2022-08-04T17:51:17.394Z,1.13
2022-08-04T17:53:52.914Z,1.13
2022-08-04T17:56:06.771Z,1.03
2022-08-04T17:58:23.161Z,1.40
2022-08-04T18:00:28.846Z,1.20
2022-08-04T18:02:37.103Z,1.10
2022-08-04T18:05:05.115Z,1.00
2022-08-04T18:08:38.622Z,1.10
2022-08-04T18:10:32.923Z,1.30
2022-08-04T18:12:35.678Z,1.00
2022-08-04T18:14:53.699Z,1.23
2022-08-04T18:16:56.482Z,1.00
2022-08-04T18:19:10.560Z,1.00
2022-08-04T18:21:15.299Z,1.30
2022-08-04T18:23:31.975Z,0.90
2022-08-04T18:25:51.166Z,0.80
2022-08-04T18:27:57.379Z,1.03
2022-08-04T18:30:33.373Z,0.83
2022-08-04T18:32:32.997Z,0.60
2022-08-04T18:34:40.927Z,0.87
2022-08-04T18:36:59.224Z,1.20
2022-08-04T18:39:15.878Z,1.00
2022-08-04T18:41:22.689Z,0.80
2022-08-04T18:43:28.183Z,0.90
2022-08-04T18:45:34.520Z,0.80
2022-08-04T18:47:59.169Z,0.70
2022-08-04T18:52:59.775Z,0.90
2022-08-04T18:55:05.220Z,1.00
2022-08-04T18:57:58.680Z,0.90
2022-08-04T18:59:33.492Z,1.05
2022-08-04T19:02:13.064Z,1.10
2022-08-04T19:04:03.428Z,0.93
2022-08-04T19:06:52.592Z,0.70
2022-08-04T19:08:55.353Z,0.80
2022-08-04T19:11:00.838Z,0.83
2022-08-04T19:13:25.436Z,0.90
2022-08-04T19:15:34.516Z,1.00
2022-08-04T19:17:57.110Z,1.00
2022-08-04T19:20:00.881Z,0.90
2022-08-04T19:22:07.283Z,1.00
2022-08-04T19:24:31.751Z,1.15
2022-08-04T19:26:36.813Z,0.90
2022-08-04T19:28:40.399Z,1.20
2022-08-04T19:30:43.528Z,1.30
2022-08-04T19:32:48.390Z,1.20
2022-08-04T19:34:52.136Z,0.90
2022-08-04T19:36:54.895Z,1.00
2022-08-04T19:38:58.493Z,1.10
2022-08-04T19:41:14.248Z,1.10
2022-08-04T19:43:36.378Z,1.52
2022-08-04T19:45:46.611Z,1.00
2022-08-04T19:48:16.138Z,1.10
2022-08-04T19:50:13.739Z,0.90
2022-08-04T19:52:34.255Z,1.07
2022-08-04T19:54:40.887Z,1.20
2022-08-04T19:56:46.499Z,1.20
2022-08-04T19:58:52.495Z,1.30
2022-08-04T20:00:58.178Z,1.20
2022-08-04T20:03:01.195Z,1.27
2022-08-04T20:05:04.384Z,1.27
2022-08-04T20:07:23.865Z,1.10
2022-08-04T20:09:27.226Z,1.40
2022-08-04T20:11:29.923Z,1.20
2022-08-04T20:13:37.742Z,1.30
2022-08-04T20:15:55.517Z,1.60
2022-08-04T20:18:36.433Z,1.60
2022-08-04T20:20:33.690Z,1.30
2022-08-04T20:22:52.498Z,1.47
2022-08-04T20:25:01.085Z,1.30
2022-08-04T20:27:23.569Z,1.40
2022-08-04T20:29:40.114Z,1.30
2022-08-04T20:31:43.621Z,1.40
2022-08-04T20:33:49.050Z,1.53
2022-08-04T20:36:05.148Z,1.30
2022-08-04T20:38:33.209Z,1.60
2022-08-04T20:40:36.882Z,2.37
2022-08-04T20:42:47.123Z,2.70
2022-08-04T20:44:53.588Z,2.50
2022-08-04T20:46:57.251Z,1.90
2022-08-04T20:49:00.022Z,2.20
2022-08-04T20:51:03.640Z,2.50
2022-08-04T20:53:16.367Z,1.93
2022-08-04T20:55:21.269Z,2.33
2022-08-04T20:57:49.273Z,2.00
2022-08-04T20:59:59.863Z,1.90
2022-08-04T21:02:05.686Z,1.80
2022-08-04T21:04:28.851Z,1.70
2022-08-04T21:06:34.331Z,1.67
2022-08-04T21:08:39.935Z,1.90
2022-08-04T21:10:47.526Z,1.40
2022-08-04T21:12:50.587Z,1.47
2022-08-04T21:14:54.588Z,2.00
2022-08-04T21:17:00.105Z,1.60
2022-08-04T21:19:04.201Z,1.40
2022-08-04T21:21:14.683Z,1.40
2022-08-04T21:23:19.303Z,1.63
2022-08-04T21:25:22.612Z,1.83
2022-08-04T21:27:25.502Z,1.73
2022-08-04T21:29:35.258Z,1.70
2022-08-04T21:31:50.375Z,1.50
2022-08-04T21:33:53.944Z,1.73
2022-08-04T21:35:56.542Z,1.80
2022-08-04T21:38:01.153Z,1.80
2022-08-04T21:40:13.723Z,2.20
2022-08-04T21:42:42.297Z,3.30
2022-08-04T21:44:41.068Z,4.40
2022-08-04T21:46:44.938Z,4.57
2022-08-04T21:48:50.792Z,4.90
2022-08-04T21:50:55.097Z,5.00
2022-08-04T21:52:59.055Z,4.17
2022-08-04T21:55:02.866Z,3.83
2022-08-04T21:57:06.323Z,4.20
2022-08-04T21:59:14.090Z,4.10
2022-08-04T22:01:21.781Z,3.77
2022-08-04T22:03:51.715Z,3.50
2022-08-04T22:05:57.034Z,4.80
2022-08-04T22:07:59.744Z,3.53
2022-08-04T22:10:06.121Z,3.03
2022-08-04T22:12:11.840Z,3.57
2022-08-04T22:14:14.935Z,2.90
2022-08-04T22:16:17.759Z,3.00
2022-08-04T22:18:20.536Z,3.30
2022-08-04T22:20:28.397Z,3.10
2022-08-04T22:22:35.492Z,3.40
2022-08-04T22:24:40.499Z,3.77
2022-08-04T22:26:43.285Z,3.40
2022-08-04T22:28:46.376Z,2.80
2022-08-04T22:30:52.265Z,2.63
2022-08-04T22:32:55.193Z,2.30
2022-08-04T22:34:57.749Z,2.30
2022-08-04T22:37:35.597Z,1.90
2022-08-04T22:39:56.510Z,1.70
2022-08-04T22:42:03.341Z,1.70
2022-08-04T22:44:08.261Z,1.93
2022-08-04T22:46:26.824Z,1.83
2022-08-04T22:48:32.148Z,1.70
2022-08-04T22:50:34.918Z,1.70
2022-08-04T22:52:51.637Z,1.60
2022-08-04T22:55:06.292Z,1.60
2022-08-04T22:57:21.197Z,1.77
2022-08-04T22:59:44.489Z,1.60
2022-08-04T23:01:57.905Z,1.70
2022-08-04T23:04:04.501Z,1.70
2022-08-04T23:06:11.488Z,1.73
2022-08-04T23:08:15.336Z,1.80
2022-08-04T23:10:25.704Z,1.63
2022-08-04T23:12:30.767Z,1.63
2022-08-04T23:14:36.775Z,1.47
2022-08-04T23:16:40.887Z,1.90
2022-08-04T23:18:48.375Z,1.60
2022-08-04T23:20:52.875Z,1.50
2022-08-04T23:22:55.788Z,1.73
2022-08-04T23:24:58.576Z,1.67
2022-08-04T23:27:02.435Z,1.40
2022-08-04T23:29:05.295Z,1.70
2022-08-04T23:31:10.310Z,1.87
2022-08-04T23:33:13.101Z,2.47
2022-08-04T23:35:18.610Z,2.90
2022-08-04T23:37:25.839Z,4.40
2022-08-04T23:40:03.889Z,3.87
2022-08-04T23:42:01.754Z,3.80
2022-08-04T23:44:05.697Z,3.43
2022-08-04T23:46:13.283Z,3.70
2022-08-04T23:48:19.189Z,3.40
2022-08-04T23:50:35.804Z,3.58
2022-08-04T23:52:43.442Z,3.37
2022-08-04T23:54:46.066Z,3.90
2022-08-04T23:56:52.867Z,3.40
2022-08-04T23:58:57.302Z,3.23
